Disclaimer

Please do not use the information listed here in-flight or in-navigation, as they are not provided to us by the airports but are provided by volunteers, so they might be outdated.

Search


Regions


Airport information page

Radio informations:
FINKENWERDER TWR - 123.25 MHz
Automatic Terminal Information Service (ATIS) - 123.125 MHz
BREMEN INFO - 125.1 MHz
BREMEN RADAR - 124.225 MHz

Airport informations:
Latitude: 53° 32' 09.19" N
Longitude: 009° 50' 13.29" E
Elevation: 22 feet - 7 meters
Operating hours: N/A
Operating agency: Private
Timezone: UTC+1(+2DT) - Last Sunday in March to last Sunday in October
Fuel: Jet A1, without icing nhibitor.

Runway information:
05/23 - 8629 x 148 feet< - >2630 x 45 meters

Recent METARs:
EDHI 151150Z 13006KT 080V160 9999 FEW018 BKN036 01/M03 Q1028
EDHI 151220Z 14007KT 110V170 9999 FEW024 BKN030 01/M04 Q1028
EDHI 151250Z 14007KT 110V180 9999 FEW022 BKN029 01/M05 Q1028

Airport on the map: